createdAt,value
2019-05-14T01:11:22.154Z,27.60
2019-05-14T01:13:52.795Z,27.60
2019-05-14T01:16:24.048Z,27.60
2019-05-14T01:18:55.263Z,27.70
2019-05-14T01:21:26.506Z,27.70
2019-05-14T01:24:02.075Z,27.70
2019-05-14T01:26:33.172Z,27.70
2019-05-14T01:29:04.798Z,27.70
2019-05-14T01:31:35.840Z,27.70
2019-05-14T01:34:06.959Z,27.80
2019-05-14T01:36:38.408Z,27.80
2019-05-14T01:39:11.869Z,27.80
2019-05-14T01:41:42.244Z,27.80
2019-05-14T01:44:13.575Z,27.80
2019-05-14T01:46:44.591Z,27.70
2019-05-14T01:49:15.518Z,27.80
2019-05-14T01:51:46.432Z,27.80
2019-05-14T01:54:17.592Z,27.70
2019-05-14T01:56:51.321Z,27.80
2019-05-14T01:59:21.487Z,27.90
2019-05-14T02:01:52.501Z,27.90
2019-05-14T02:04:23.618Z,27.90
2019-05-14T02:06:54.690Z,28.00
2019-05-14T02:09:25.822Z,27.90
2019-05-14T02:11:56.831Z,27.90
2019-05-14T02:14:27.926Z,28.00
2019-05-14T02:17:01.645Z,28.00
2019-05-14T02:19:31.850Z,28.00
2019-05-14T02:22:03.124Z,28.00
2019-05-14T02:24:34.072Z,28.10
2019-05-14T02:27:04.917Z,28.10
2019-05-14T02:29:55.686Z,28.10
2019-05-14T02:32:29.597Z,28.20
2019-05-14T02:34:58.930Z,28.10
2019-05-14T02:37:30.253Z,28.20
2019-05-14T02:40:01.524Z,28.20
2019-05-14T02:42:32.487Z,28.20
2019-05-14T02:45:04.790Z,28.20
2019-05-14T02:47:34.881Z,28.30
2019-05-14T02:50:09.689Z,28.30
2019-05-14T02:52:40.222Z,28.30
2019-05-14T02:55:11.309Z,28.40
2019-05-14T02:57:42.282Z,28.30
2019-05-14T03:00:13.316Z,28.40
2019-05-14T03:02:44.628Z,28.40
2019-05-14T03:07:54.115Z,28.50
2019-05-14T03:10:25.115Z,28.50
2019-05-14T03:12:58.842Z,28.60
2019-05-14T03:15:29.141Z,28.60
2019-05-14T03:18:00.736Z,28.70
2019-05-14T03:20:31.768Z,28.70
2019-05-14T03:23:08.666Z,28.70
2019-05-14T03:25:36.036Z,28.80
2019-05-14T03:28:09.249Z,28.80
2019-05-14T03:30:42.333Z,28.90
2019-05-14T03:33:13.150Z,28.90
2019-05-14T03:35:50.029Z,29.00
2019-05-14T03:38:15.669Z,29.00
2019-05-14T03:40:49.406Z,29.10
2019-05-14T03:43:19.911Z,29.20
2019-05-14T03:45:51.099Z,29.20
2019-05-14T03:48:22.219Z,29.30
2019-05-14T03:50:53.522Z,29.30
2019-05-14T03:53:24.559Z,29.40
2019-05-14T03:55:55.704Z,29.50
2019-05-14T03:58:29.635Z,29.50
2019-05-14T04:01:00.271Z,29.60
2019-05-14T04:03:32.903Z,29.60
2019-05-14T04:06:04.274Z,29.70
2019-05-14T04:08:35.361Z,29.80
2019-05-14T04:11:09.342Z,29.80
2019-05-14T04:13:40.607Z,29.90
2019-05-14T04:16:10.911Z,30.00
2019-05-14T04:18:41.897Z,30.00
2019-05-14T04:21:14.768Z,30.10
2019-05-14T04:23:50.854Z,30.10
2019-05-14T04:26:22.259Z,30.20
2019-05-14T04:28:53.482Z,30.30
2019-05-14T04:31:24.463Z,30.40
2019-05-14T04:33:59.252Z,30.30
2019-05-14T04:36:30.572Z,30.40
2019-05-14T04:39:02.028Z,30.40
2019-05-14T04:41:33.099Z,30.40
2019-05-14T04:44:04.093Z,30.40
2019-05-14T04:46:35.086Z,30.40
2019-05-14T04:49:09.331Z,30.50
2019-05-14T04:51:39.673Z,30.50
2019-05-14T04:54:11.173Z,30.50
2019-05-14T04:56:42.199Z,30.60
2019-05-14T04:59:13.074Z,30.70
2019-05-14T05:01:44.074Z,30.70
2019-05-14T05:04:15.122Z,30.80
2019-05-14T05:06:45.903Z,30.80
2019-05-14T05:09:19.760Z,31.00
2019-05-14T05:11:49.819Z,31.00
2019-05-14T05:14:23.620Z,31.00
2019-05-14T05:16:52.237Z,31.10
2019-05-14T05:19:23.122Z,31.10
2019-05-14T05:21:54.234Z,31.10
2019-05-14T05:24:28.700Z,31.20
2019-05-14T05:26:59.900Z,31.20
2019-05-14T05:29:31.645Z,31.20
2019-05-14T05:32:03.194Z,31.30
2019-05-14T05:34:34.797Z,31.40
2019-05-14T05:37:08.432Z,31.50
2019-05-14T05:39:39.628Z,31.50
2019-05-14T05:42:11.310Z,31.50
2019-05-14T05:44:42.890Z,31.60
2019-05-14T05:47:14.387Z,31.60
2019-05-14T05:49:45.534Z,31.60
2019-05-14T05:52:18.911Z,31.60
2019-05-14T05:54:49.226Z,31.60
2019-05-14T05:57:20.159Z,31.60
2019-05-14T05:59:51.399Z,31.70
2019-05-14T06:02:22.586Z,31.70
2019-05-14T06:04:53.839Z,31.70
2019-05-14T06:07:24.778Z,31.80
2019-05-14T06:09:58.868Z,31.90
2019-05-14T06:12:29.549Z,31.90
2019-05-14T06:15:00.540Z,31.90
2019-05-14T06:17:31.544Z,31.90
2019-05-14T06:20:02.490Z,31.90
2019-05-14T06:22:33.391Z,31.90
2019-05-14T06:25:04.383Z,31.90
2019-05-14T06:27:35.245Z,31.90
2019-05-14T06:30:09.139Z,31.90
2019-05-14T06:32:40.180Z,32.00
2019-05-14T06:35:10.999Z,32.00
2019-05-14T06:37:41.975Z,32.00
2019-05-14T06:40:12.877Z,32.00
2019-05-14T06:42:43.862Z,31.90
2019-05-14T06:45:14.823Z,32.00
2019-05-14T06:47:45.811Z,32.00
2019-05-14T06:50:18.856Z,32.00
2019-05-14T06:52:49.304Z,32.00
2019-05-14T06:55:20.287Z,32.00
2019-05-14T06:57:51.281Z,31.90
2019-05-14T07:00:22.266Z,31.90
2019-05-14T07:02:53.317Z,31.90
2019-05-14T07:05:24.467Z,31.90
2019-05-14T07:10:44.275Z,32.00
2019-05-14T07:13:15.283Z,31.90
2019-05-14T07:15:48.699Z,32.00
2019-05-14T07:18:19.001Z,32.00
2019-05-14T07:20:50.124Z,32.10
2019-05-14T07:23:21.113Z,32.20
2019-05-14T07:25:52.215Z,32.20
2019-05-14T07:28:23.134Z,32.20
2019-05-14T07:30:54.053Z,32.20
2019-05-14T07:33:25.442Z,32.10
2019-05-14T07:35:59.134Z,32.00
2019-05-14T07:38:28.378Z,32.00
2019-05-14T07:41:00.069Z,31.90
2019-05-14T07:43:31.332Z,31.90
2019-05-14T07:46:02.202Z,31.80
2019-05-14T07:48:33.090Z,31.70
2019-05-14T07:51:04.226Z,31.70
2019-05-14T07:53:39.034Z,31.70
2019-05-14T07:56:06.400Z,31.70
2019-05-14T07:58:38.635Z,31.70
2019-05-14T08:01:09.867Z,31.60
2019-05-14T08:03:40.804Z,31.60
2019-05-14T08:06:12.015Z,31.70
2019-05-14T08:08:43.123Z,31.60
2019-05-14T08:11:13.943Z,31.60
2019-05-14T08:13:44.944Z,31.60
2019-05-14T08:16:18.488Z,31.70
2019-05-14T08:18:48.719Z,31.70
2019-05-14T08:21:19.971Z,31.80
2019-05-14T08:23:51.291Z,31.80
2019-05-14T08:26:22.304Z,31.80
2019-05-14T08:28:53.313Z,31.80
2019-05-14T08:31:25.147Z,31.80
2019-05-14T08:33:58.977Z,31.70
2019-05-14T08:36:29.751Z,31.80
2019-05-14T08:39:01.296Z,31.80
2019-05-14T08:41:33.451Z,31.70
2019-05-14T08:44:03.407Z,31.70
2019-05-14T08:46:34.605Z,31.70
2019-05-14T08:49:05.683Z,31.60
2019-05-14T08:51:38.836Z,31.60
2019-05-14T08:54:10.072Z,31.50
2019-05-14T08:56:40.419Z,31.50
2019-05-14T08:59:11.279Z,31.50
2019-05-14T09:01:57.172Z,31.40
2019-05-14T09:04:13.361Z,31.40
2019-05-14T09:06:44.357Z,31.40
2019-05-14T09:09:15.468Z,31.40
2019-05-14T09:11:50.147Z,31.40
2019-05-14T09:14:18.880Z,31.40
2019-05-14T09:16:50.985Z,31.50
2019-05-14T09:19:21.967Z,31.40
2019-05-14T09:21:52.898Z,31.40
2019-05-14T09:24:24.132Z,31.50
2019-05-14T09:26:55.127Z,31.50
2019-05-14T09:30:09.331Z,31.60
2019-05-14T09:32:00.946Z,31.70
2019-05-14T09:34:31.879Z,31.70
2019-05-14T09:37:03.351Z,31.70
2019-05-14T09:39:34.267Z,31.80
2019-05-14T09:42:05.274Z,31.90
2019-05-14T09:44:38.570Z,31.90
2019-05-14T09:47:08.824Z,31.90
2019-05-14T09:49:39.800Z,31.90
2019-05-14T09:52:10.692Z,31.90
2019-05-14T09:54:44.077Z,32.00
2019-05-14T09:57:15.518Z,32.00
2019-05-14T09:59:47.976Z,32.00
2019-05-14T10:02:18.749Z,32.00
2019-05-14T10:04:49.809Z,32.00
2019-05-14T10:07:20.940Z,32.00
2019-05-14T10:09:51.873Z,32.10
2019-05-14T10:12:22.705Z,32.10
2019-05-14T10:14:53.819Z,32.10
2019-05-14T10:17:24.831Z,32.10
2019-05-14T10:19:56.072Z,32.10
2019-05-14T10:22:28.544Z,32.10
2019-05-14T10:24:59.507Z,32.10
2019-05-14T10:27:30.410Z,32.00
2019-05-14T10:30:01.276Z,32.00
2019-05-14T10:32:32.105Z,32.00
2019-05-14T10:35:03.266Z,32.00
2019-05-14T10:37:34.035Z,31.90
2019-05-14T10:40:06.658Z,31.80
2019-05-14T10:42:40.865Z,31.70
2019-05-14T10:45:13.103Z,31.60
2019-05-14T10:47:44.211Z,31.50
2019-05-14T10:50:15.298Z,31.30
2019-05-14T10:52:48.813Z,31.30
2019-05-14T10:55:18.901Z,31.20
2019-05-14T10:57:54.196Z,31.20
2019-05-14T11:00:22.374Z,31.10
2019-05-14T11:02:53.423Z,31.10
2019-05-14T11:05:24.534Z,31.00
2019-05-14T11:07:55.365Z,31.00
2019-05-14T11:10:29.550Z,30.90
2019-05-14T11:12:59.403Z,30.80
2019-05-14T11:15:30.742Z,30.80
2019-05-14T11:18:03.409Z,30.70
2019-05-14T11:20:34.420Z,30.60
2019-05-14T11:23:05.900Z,30.50
2019-05-14T11:25:38.331Z,30.50
2019-05-14T11:28:12.598Z,30.40
2019-05-14T11:30:43.523Z,30.30
2019-05-14T11:33:14.745Z,30.30
2019-05-14T11:35:45.727Z,30.20
2019-05-14T11:38:28.533Z,30.10
2019-05-14T11:40:49.605Z,30.00
2019-05-14T11:43:20.327Z,30.00
2019-05-14T11:45:51.286Z,30.00
2019-05-14T11:48:22.358Z,29.90
2019-05-14T11:50:53.285Z,29.90
2019-05-14T11:53:38.508Z,29.90
2019-05-14T11:56:09.786Z,29.90
2019-05-14T11:58:40.592Z,29.90
2019-05-14T12:01:29.592Z,29.90
2019-05-14T12:03:59.775Z,29.90
2019-05-14T12:09:23.653Z,29.90
2019-05-14T12:11:54.768Z,29.90
2019-05-14T12:14:25.857Z,29.80
2019-05-14T12:16:59.713Z,29.80
2019-05-14T12:19:28.981Z,29.80
2019-05-14T12:22:07.079Z,29.80
2019-05-14T12:24:32.012Z,29.70
2019-05-14T12:27:03.192Z,29.70
2019-05-14T12:29:34.048Z,29.70
2019-05-14T12:32:04.903Z,29.70
2019-05-14T12:34:38.494Z,29.70
2019-05-14T12:37:09.111Z,29.70
2019-05-14T12:39:39.552Z,29.70
2019-05-14T12:42:11.248Z,29.70
2019-05-14T12:44:42.440Z,29.80
2019-05-14T12:47:13.777Z,29.70
2019-05-14T12:49:48.338Z,29.70
2019-05-14T12:52:25.504Z,29.60
2019-05-14T12:54:51.594Z,29.60
2019-05-14T12:57:22.697Z,29.50
2019-05-14T12:59:54.750Z,29.40
2019-05-14T13:02:25.658Z,29.20
2019-05-14T13:04:59.989Z,29.10
2019-05-14T13:07:29.462Z,29.00
2019-05-14T13:10:00.510Z,28.90
2019-05-14T13:12:31.399Z,28.90
2019-05-14T13:15:02.393Z,28.90
2019-05-14T13:17:33.750Z,28.90
2019-05-14T13:20:05.713Z,28.80
2019-05-14T13:22:44.923Z,28.80
2019-05-14T13:25:10.754Z,28.80
2019-05-14T13:27:41.726Z,28.80
2019-05-14T13:30:14.992Z,28.80
2019-05-14T13:32:48.548Z,28.80
2019-05-14T13:35:19.611Z,28.80
2019-05-14T13:37:51.419Z,28.70
2019-05-14T13:40:22.558Z,28.70
2019-05-14T13:42:53.668Z,28.70
2019-05-14T13:45:24.636Z,28.70
2019-05-14T13:47:55.767Z,28.70
2019-05-14T13:50:29.260Z,28.70
2019-05-14T13:53:02.783Z,28.60
2019-05-14T13:55:31.580Z,28.50
2019-05-14T13:58:03.033Z,28.50
2019-05-14T14:00:34.060Z,28.40
2019-05-14T14:03:04.838Z,28.40
2019-05-14T14:05:38.911Z,28.40
2019-05-14T14:08:08.762Z,28.40
2019-05-14T14:10:44.853Z,28.40
2019-05-14T14:13:11.477Z,28.30
2019-05-14T14:15:42.984Z,28.30
2019-05-14T14:18:14.147Z,28.40
2019-05-14T14:20:45.060Z,28.30
2019-05-14T14:23:21.853Z,28.30
2019-05-14T14:25:53.713Z,28.30
2019-05-14T14:28:19.851Z,28.30
2019-05-14T14:30:51.817Z,28.20
2019-05-14T14:33:22.742Z,28.20
2019-05-14T14:35:53.767Z,28.20
2019-05-14T14:38:25.402Z,28.20
2019-05-14T14:40:58.217Z,28.20
2019-05-14T14:43:29.510Z,28.10
2019-05-14T14:46:00.782Z,28.10
2019-05-14T14:48:31.606Z,28.10
2019-05-14T14:51:02.746Z,28.10
2019-05-14T14:53:51.486Z,28.10
2019-05-14T14:56:09.054Z,28.10
2019-05-14T14:58:39.017Z,28.10
2019-05-14T15:01:09.382Z,28.10
2019-05-14T15:03:40.476Z,28.10
2019-05-14T15:06:11.662Z,28.10
2019-05-14T15:08:43.042Z,28.10
2019-05-14T15:11:13.951Z,28.10
2019-05-14T15:13:45.014Z,28.10
2019-05-14T15:16:16.046Z,28.20
2019-05-14T15:18:49.816Z,28.20
2019-05-14T15:21:19.616Z,28.20
2019-05-14T15:24:06.176Z,28.20
2019-05-14T15:26:22.789Z,28.20
2019-05-14T15:28:53.945Z,28.30
2019-05-14T15:31:24.899Z,28.30
2019-05-14T15:33:55.769Z,28.30
2019-05-14T15:36:26.659Z,28.30
2019-05-14T15:38:59.170Z,28.30
2019-05-14T15:41:30.390Z,28.30
2019-05-14T15:44:02.339Z,28.30
2019-05-14T15:46:33.289Z,28.30
2019-05-14T15:49:04.260Z,28.30
2019-05-14T15:51:35.366Z,28.20
2019-05-14T15:54:23.651Z,28.20
2019-05-14T15:56:39.506Z,28.20
2019-05-14T15:59:10.510Z,28.20
2019-05-14T16:01:41.453Z,28.20
2019-05-14T16:04:15.389Z,28.10
2019-05-14T16:06:48.727Z,28.10
2019-05-14T16:09:19.453Z,28.10
2019-05-14T16:11:50.691Z,28.10
2019-05-14T16:14:23.391Z,28.20
2019-05-14T16:46:38.577Z,28.00
2019-05-14T16:49:09.486Z,28.00
2019-05-14T16:51:41.232Z,28.00
2019-05-14T16:54:12.898Z,28.00
2019-05-14T16:56:50.246Z,28.00
2019-05-14T16:59:40.651Z,28.00
2019-05-14T17:02:12.095Z,27.90
2019-05-14T17:04:43.367Z,27.90
2019-05-14T17:07:14.637Z,27.90
2019-05-14T17:09:45.759Z,27.90
2019-05-14T17:12:20.153Z,27.90
2019-05-14T17:14:49.885Z,27.90
2019-05-14T17:17:20.959Z,27.90
2019-05-14T17:19:52.198Z,27.90
2019-05-14T17:22:29.176Z,27.90
2019-05-14T17:24:58.641Z,27.90
2019-05-14T17:27:29.965Z,27.90
2019-05-14T17:30:01.192Z,27.90
2019-05-14T17:32:32.550Z,27.90
2019-05-14T17:35:04.342Z,28.00
2019-05-14T17:37:36.310Z,28.00
2019-05-14T17:40:09.322Z,28.00
2019-05-14T17:42:40.753Z,28.00
2019-05-14T17:45:12.297Z,28.00
2019-05-14T17:47:43.352Z,28.00
2019-05-14T17:50:14.807Z,28.10
2019-05-14T17:52:46.214Z,28.10
2019-05-14T17:55:18.779Z,28.10
2019-05-14T17:57:57.532Z,28.10
2019-05-14T18:00:22.724Z,28.10
2019-05-14T18:02:54.037Z,28.10
2019-05-14T18:05:25.143Z,28.10
2019-05-14T18:07:59.126Z,28.20
2019-05-14T18:10:28.940Z,28.20
2019-05-14T18:13:00.502Z,28.10
2019-05-14T18:15:31.660Z,28.20
2019-05-14T18:18:04.658Z,28.10
2019-05-14T18:20:36.180Z,28.20
2019-05-14T18:23:11.474Z,28.20
2019-05-14T18:25:39.571Z,28.20
2019-05-14T18:28:10.878Z,28.20
2019-05-14T18:30:42.119Z,28.20
2019-05-14T18:33:13.346Z,28.10
2019-05-14T18:35:47.458Z,28.10
2019-05-14T18:38:19.423Z,28.10
2019-05-14T18:40:50.125Z,28.10
2019-05-14T18:43:21.516Z,28.00
2019-05-14T18:45:52.749Z,28.00
2019-05-14T18:48:25.168Z,27.90
2019-05-14T18:50:59.052Z,27.90
2019-05-14T18:53:29.020Z,27.90
2019-05-14T18:56:16.126Z,27.90
2019-05-14T18:58:32.710Z,27.90
2019-05-14T19:01:04.320Z,27.90
2019-05-14T19:03:39.283Z,27.80
